page 5159 of 1004477 registered users

eBook PostsUsers

  1. 0violinquilt36 registered @ 2012-12-29 16:11:51, last login @ 2012-12-29 16:11:51
  2. 0drawergrouse4 registered @ 2012-12-29 16:12:56, last login @ 2012-12-29 16:12:56
  3. 0atompig9 registered @ 2012-12-29 16:13:22, last login @ 2012-12-29 16:13:22
  4. 0alisonlrc registered @ 2012-12-29 16:15:44, last login @ 2012-12-29 16:15:44
  5. 0Kwenerz registered @ 2012-12-29 16:16:35, last login @ 2012-12-29 16:16:35
  6. 0airbus71height registered @ 2012-12-29 16:17:10, last login @ 2012-12-29 16:17:10
  7. 0day6move registered @ 2012-12-29 16:17:28, last login @ 2012-12-29 16:17:28
  8. 0pipe7weight registered @ 2012-12-29 16:18:00, last login @ 2012-12-29 16:18:00
  9. 0radarguitar8 registered @ 2012-12-29 16:19:33, last login @ 2012-12-29 16:19:33
  10. 0gum6result registered @ 2012-12-29 16:19:34, last login @ 2012-12-29 16:19:34
  11. 0slippond36 registered @ 2012-12-29 16:20:07, last login @ 2012-12-29 16:20:07
  12. 0goosemodem76 registered @ 2012-12-29 16:20:38, last login @ 2012-12-29 16:20:38
  13. 0yogurt12fear registered @ 2012-12-29 16:21:46, last login @ 2012-12-29 16:21:46
  14. 0closethread56 registered @ 2012-12-29 16:21:59, last login @ 2012-12-29 16:21:59
  15. 0baboon88hook registered @ 2012-12-29 16:22:07, last login @ 2012-12-29 16:22:07
  16. 0homerobert59 registered @ 2012-12-29 16:22:55, last login @ 2012-12-29 16:22:55
  17. 0tramp0tempo registered @ 2012-12-29 16:23:39, last login @ 2012-12-29 16:23:39
  18. 0hosefront39 registered @ 2012-12-29 16:23:40, last login @ 2012-12-29 16:23:40
  19. 0JacobHSmalls registered @ 2012-12-29 16:23:58, last login @ 2012-12-29 16:27:50
  20. 0suede9tin registered @ 2012-12-29 16:24:01, last login @ 2012-12-29 16:24:01
  21. 0jaw7soy registered @ 2012-12-29 16:24:59, last login @ 2012-12-29 16:24:59
  22. 0plane9stem registered @ 2012-12-29 16:30:05, last login @ 2012-12-29 16:30:05
  23. 0panty9brian registered @ 2012-12-29 16:30:53, last login @ 2012-12-29 16:30:53
  24. 0gemininickel11 registered @ 2012-12-29 16:34:28, last login @ 2012-12-29 16:34:28
  25. 0friday7expert registered @ 2012-12-29 16:35:35, last login @ 2012-12-29 16:35:35
  26. 0shame5organ registered @ 2012-12-29 16:35:48, last login @ 2012-12-29 16:35:48
  27. 0tuhina registered @ 2012-12-29 16:41:00, last login @ 2012-12-29 16:41:00
  28. 0basinbait7 registered @ 2012-12-29 16:41:46, last login @ 2012-12-29 16:41:46
  29. 0plierlitter8 registered @ 2012-12-29 16:42:11, last login @ 2012-12-29 16:42:11
  30. 0stone4spade registered @ 2012-12-29 16:42:30, last login @ 2012-12-29 16:42:30
  31. 0costjacket5 registered @ 2012-12-29 16:42:44, last login @ 2012-12-29 16:42:44
  32. 0bankermuscle65 registered @ 2012-12-29 16:42:50, last login @ 2012-12-29 16:42:50
  33. 0eggnogliver71 registered @ 2012-12-29 16:43:24, last login @ 2012-12-29 16:43:24
  34. 0rotatejeep76 registered @ 2012-12-29 16:44:03, last login @ 2012-12-29 16:44:03
  35. 0knight7quit registered @ 2012-12-29 16:44:22, last login @ 2012-12-29 16:44:22
  36. 0market3back registered @ 2012-12-29 16:45:13, last login @ 2012-12-29 16:45:13
  37. 0menuolive0 registered @ 2012-12-29 16:45:34, last login @ 2012-12-29 16:45:34
  38. 0tenorbutter0 registered @ 2012-12-29 16:45:56, last login @ 2012-12-29 16:45:56
  39. 0foodpilot50 registered @ 2012-12-29 16:46:59, last login @ 2012-12-29 16:46:59
  40. 0napkin06inch registered @ 2012-12-29 16:48:02, last login @ 2012-12-29 16:48:02
  41. 0dew8moat registered @ 2012-12-29 16:49:42, last login @ 2012-12-29 16:49:42
  42. 0flavor0pyjama registered @ 2012-12-29 16:50:21, last login @ 2012-12-29 16:50:21
  43. 0freeze62stage registered @ 2012-12-29 16:51:01, last login @ 2012-12-29 16:51:01
  44. 0root24hood registered @ 2012-12-29 16:51:30, last login @ 2012-12-29 16:51:30
  45. 0fowl2carp registered @ 2012-12-29 16:51:44, last login @ 2012-12-29 16:51:44
  46. 0relish7gray registered @ 2012-12-29 16:53:17, last login @ 2012-12-29 16:53:17
  47. 0friday98agenda registered @ 2012-12-29 16:53:27, last login @ 2012-12-29 16:53:27
  48. 0tiffanyp03 registered @ 2012-12-29 16:54:35, last login @ 2012-12-29 16:54:35
  49. 0frownangle6 registered @ 2012-12-29 16:55:04, last login @ 2012-12-29 16:55:04
  50. 0pepper91forest registered @ 2012-12-29 16:56:19, last login @ 2012-12-29 16:56:19
  51. 0LukeHSnyder registered @ 2012-12-29 16:56:38, last login @ 2012-12-29 16:56:38
  52. 0felonybead9 registered @ 2012-12-29 16:57:05, last login @ 2012-12-29 16:57:05
  53. 0den6pyjama registered @ 2012-12-29 16:57:18, last login @ 2012-12-29 16:57:18
  54. 0cinema27crab registered @ 2012-12-29 16:57:28, last login @ 2012-12-29 16:57:28
  55. 0brownbread63 registered @ 2012-12-29 16:57:40, last login @ 2012-12-29 16:57:40
  56. 0guide6shirt registered @ 2012-12-29 17:00:09, last login @ 2012-12-29 17:00:09
  57. 0hornfat53 registered @ 2012-12-29 17:00:24, last login @ 2012-12-29 17:00:24
  58. 0whorl2run registered @ 2012-12-29 17:02:42, last login @ 2012-12-29 17:02:42
  59. 0can5boot registered @ 2012-12-29 17:04:55, last login @ 2012-12-29 17:04:55
  60. 0gasbrian3 registered @ 2012-12-29 17:05:38, last login @ 2012-12-29 17:05:38
  61. 0shark76niece registered @ 2012-12-29 17:06:26, last login @ 2012-12-29 17:06:26
  62. 0purple2lumber registered @ 2012-12-29 17:07:11, last login @ 2012-12-29 17:07:11
  63. 0whorl40smell registered @ 2012-12-29 17:07:44, last login @ 2012-12-29 17:07:44
  64. 0yeartalk85 registered @ 2012-12-29 17:07:58, last login @ 2012-12-29 17:07:58
  65. 0washer1cirrus registered @ 2012-12-29 17:08:25, last login @ 2012-12-29 17:08:25
  66. 0sceavtgtk registered @ 2012-12-29 17:09:18, last login @ 2012-12-29 17:09:18
  67. 0bassblood33 registered @ 2012-12-29 17:09:28, last login @ 2012-12-29 17:09:28
  68. 0vision9rest registered @ 2012-12-29 17:09:39, last login @ 2012-12-29 17:09:39
  69. 0rayon92brazil registered @ 2012-12-29 17:10:40, last login @ 2012-12-29 17:48:41
  70. 0crowncase65 registered @ 2012-12-29 17:11:35, last login @ 2012-12-29 17:11:35
  71. 0paradering20 registered @ 2012-12-29 17:11:59, last login @ 2012-12-29 17:11:59
  72. 0indexstring1 registered @ 2012-12-29 17:12:00, last login @ 2012-12-29 17:12:00
  73. 0tankercrib80 registered @ 2012-12-29 17:13:18, last login @ 2012-12-29 17:13:18
  74. 0turkey7dinner registered @ 2012-12-29 17:13:27, last login @ 2012-12-29 17:13:27
  75. 0cloudybean33 registered @ 2012-12-29 17:13:37, last login @ 2012-12-29 17:13:37
  76. 0study4canoe registered @ 2012-12-29 17:14:32, last login @ 2012-12-29 17:14:32
  77. 0part19tent registered @ 2012-12-29 17:17:59, last login @ 2012-12-29 17:17:59
  78. 0turkeybrush69 registered @ 2012-12-29 17:18:03, last login @ 2012-12-29 17:18:03
  79. 0drive75brass registered @ 2012-12-29 17:18:31, last login @ 2012-12-29 17:18:31
  80. 0pajama72cold registered @ 2012-12-29 17:18:36, last login @ 2012-12-29 17:18:36
  81. 0index9tin registered @ 2012-12-29 17:18:36, last login @ 2012-12-29 17:18:36
  82. 0donkeycement84 registered @ 2012-12-29 17:18:59, last login @ 2012-12-29 17:18:59
  83. 0layer07banjo registered @ 2012-12-29 17:18:59, last login @ 2012-12-29 17:18:59
  84. 0timer4pot registered @ 2012-12-29 17:19:06, last login @ 2012-12-29 17:19:06
  85. 0MichealHRios registered @ 2012-12-29 17:21:35, last login @ 2012-12-29 17:26:33
  86. 0firedcat52 registered @ 2012-12-29 17:24:19, last login @ 2012-12-29 17:24:19
  87. 0hole64case registered @ 2012-12-29 17:24:48, last login @ 2012-12-29 17:24:48
  88. 0ear3summer registered @ 2012-12-29 17:25:26, last login @ 2012-12-29 17:25:26
  89. 0makeuing145en registered @ 2012-12-29 17:25:55, last login @ 2012-12-29 17:25:55
  90. 0cry79bench registered @ 2012-12-29 17:26:06, last login @ 2012-12-29 17:26:06
  91. 0memory2beet registered @ 2012-12-29 17:26:08, last login @ 2012-12-29 17:26:08
  92. 0sock00battle registered @ 2012-12-29 17:27:34, last login @ 2012-12-29 17:27:34
  93. 0lungshovel66 registered @ 2012-12-29 17:27:45, last login @ 2012-12-29 17:27:45
  94. 0iron6wine registered @ 2012-12-29 17:28:17, last login @ 2012-12-29 17:28:17
  95. 0horncurler53 registered @ 2012-12-29 17:29:27, last login @ 2012-12-29 17:29:27
  96. 0pricelawyer3 registered @ 2012-12-29 17:29:38, last login @ 2012-12-29 17:29:38
  97. 0sarah2pest registered @ 2012-12-29 17:30:35, last login @ 2012-12-29 17:30:35
  98. 0wood93trowel registered @ 2012-12-29 17:30:36, last login @ 2012-12-29 17:30:36
  99. 0bullmass42 registered @ 2012-12-29 17:31:31, last login @ 2012-12-29 17:31:31
  100. 0cork8shrine registered @ 2012-12-29 17:32:48, last login @ 2012-12-29 17:32:48
  101. 0owl0brandy registered @ 2012-12-29 17:34:20, last login @ 2012-12-29 17:34:20

More...

[5169] [5168] [5167] [5166] [5165] [5164] [5163] [5162] [5161] [5160] [5159] [5158] [5157] [5156] [5155] [5154] [5153] [5152] [5151] [5150] ...[1]
Back to Top